sensor_id;sensor_type;location;lat;lon;timestamp;P1;durP1;ratioP1;P2;durP2;ratioP2
71496;SDS011;59317;53.218;5.730;2023-07-28T00:02:03;31.92;;;7.65;;
71496;SDS011;59317;53.218;5.730;2023-07-28T00:04:29;32.70;;;7.63;;
71496;SDS011;59317;53.218;5.730;2023-07-28T00:06:55;32.73;;;7.73;;
71496;SDS011;59317;53.218;5.730;2023-07-28T00:09:21;31.27;;;7.53;;
71496;SDS011;59317;53.218;5.730;2023-07-28T00:11:48;34.45;;;7.55;;
71496;SDS011;59317;53.218;5.730;2023-07-28T00:14:14;30.52;;;7.65;;
71496;SDS011;59317;53.218;5.730;2023-07-28T00:16:40;34.72;;;8.13;;
71496;SDS011;59317;53.218;5.730;2023-07-28T00:19:06;37.17;;;7.95;;
71496;SDS011;59317;53.218;5.730;2023-07-28T00:21:32;36.13;;;8.18;;
71496;SDS011;59317;53.218;5.730;2023-07-28T00:23:58;40.53;;;8.40;;
71496;SDS011;59317;53.218;5.730;2023-07-28T00:26:26;33.60;;;8.30;;
71496;SDS011;59317;53.218;5.730;2023-07-28T00:28:52;35.70;;;8.65;;
71496;SDS011;59317;53.218;5.730;2023-07-28T00:31:21;40.17;;;9.15;;
71496;SDS011;59317;53.218;5.730;2023-07-28T00:33:47;30.40;;;8.00;;
71496;SDS011;59317;53.218;5.730;2023-07-28T00:36:13;33.80;;;8.00;;
71496;SDS011;59317;53.218;5.730;2023-07-28T00:38:39;33.78;;;8.50;;
71496;SDS011;59317;53.218;5.730;2023-07-28T00:41:05;38.33;;;8.43;;
71496;SDS011;59317;53.218;5.730;2023-07-28T00:43:31;36.05;;;8.57;;
71496;SDS011;59317;53.218;5.730;2023-07-28T00:45:57;35.53;;;8.40;;
71496;SDS011;59317;53.218;5.730;2023-07-28T00:48:23;44.13;;;9.27;;
71496;SDS011;59317;53.218;5.730;2023-07-28T00:50:50;35.78;;;8.60;;
71496;SDS011;59317;53.218;5.730;2023-07-28T00:53:19;43.80;;;9.25;;
71496;SDS011;59317;53.218;5.730;2023-07-28T00:55:45;40.13;;;9.10;;
71496;SDS011;59317;53.218;5.730;2023-07-28T00:58:11;36.60;;;8.63;;
71496;SDS011;59317;53.218;5.730;2023-07-28T01:00:37;30.02;;;8.85;;
71496;SDS011;59317;53.218;5.730;2023-07-28T01:03:03;36.92;;;9.18;;
71496;SDS011;59317;53.218;5.730;2023-07-28T01:05:34;38.17;;;8.95;;
71496;SDS011;59317;53.218;5.730;2023-07-28T01:08:19;34.65;;;8.27;;
71496;SDS011;59317;53.218;5.730;2023-07-28T01:10:47;35.10;;;8.32;;
71496;SDS011;59317;53.218;5.730;2023-07-28T01:13:13;38.13;;;8.18;;
71496;SDS011;59317;53.218;5.730;2023-07-28T01:15:39;32.90;;;8.15;;
71496;SDS011;59317;53.218;5.730;2023-07-28T01:18:05;34.20;;;9.30;;
71496;SDS011;59317;53.218;5.730;2023-07-28T01:20:31;29.25;;;8.40;;
71496;SDS011;59317;53.218;5.730;2023-07-28T01:25:47;28.87;;;8.07;;
71496;SDS011;59317;53.218;5.730;2023-07-28T01:28:15;33.95;;;8.25;;
71496;SDS011;59317;53.218;5.730;2023-07-28T01:30:41;31.23;;;7.72;;
71496;SDS011;59317;53.218;5.730;2023-07-28T01:33:07;34.40;;;7.82;;
71496;SDS011;59317;53.218;5.730;2023-07-28T01:35:35;31.02;;;7.50;;
71496;SDS011;59317;53.218;5.730;2023-07-28T01:38:02;30.00;;;6.93;;
71496;SDS011;59317;53.218;5.730;2023-07-28T01:40:28;32.37;;;7.30;;
71496;SDS011;59317;53.218;5.730;2023-07-28T01:42:54;28.03;;;6.83;;
71496;SDS011;59317;53.218;5.730;2023-07-28T01:45:20;31.83;;;7.40;;
71496;SDS011;59317;53.218;5.730;2023-07-28T01:47:46;33.20;;;7.07;;
71496;SDS011;59317;53.218;5.730;2023-07-28T01:50:12;25.50;;;7.00;;
71496;SDS011;59317;53.218;5.730;2023-07-28T01:52:38;22.20;;;5.87;;
71496;SDS011;59317;53.218;5.730;2023-07-28T01:55:04;28.98;;;6.50;;
71496;SDS011;59317;53.218;5.730;2023-07-28T01:57:34;28.47;;;6.87;;
71496;SDS011;59317;53.218;5.730;2023-07-28T02:00:01;27.58;;;6.30;;
71496;SDS011;59317;53.218;5.730;2023-07-28T02:02:28;28.10;;;6.37;;
71496;SDS011;59317;53.218;5.730;2023-07-28T02:04:54;26.50;;;5.90;;
71496;SDS011;59317;53.218;5.730;2023-07-28T02:07:20;25.90;;;5.73;;
71496;SDS011;59317;53.218;5.730;2023-07-28T02:09:46;27.13;;;5.80;;
71496;SDS011;59317;53.218;5.730;2023-07-28T02:12:12;24.27;;;5.90;;
71496;SDS011;59317;53.218;5.730;2023-07-28T02:14:38;25.23;;;5.83;;
71496;SDS011;59317;53.218;5.730;2023-07-28T02:17:04;28.83;;;6.47;;
71496;SDS011;59317;53.218;5.730;2023-07-28T02:19:30;30.42;;;6.43;;
71496;SDS011;59317;53.218;5.730;2023-07-28T02:21:56;28.35;;;6.40;;
71496;SDS011;59317;53.218;5.730;2023-07-28T02:24:22;27.00;;;6.40;;
71496;SDS011;59317;53.218;5.730;2023-07-28T02:26:48;31.55;;;6.25;;
71496;SDS011;59317;53.218;5.730;2023-07-28T02:29:14;23.90;;;5.63;;
71496;SDS011;59317;53.218;5.730;2023-07-28T02:31:40;27.50;;;5.82;;
71496;SDS011;59317;53.218;5.730;2023-07-28T02:34:06;24.02;;;5.70;;
71496;SDS011;59317;53.218;5.730;2023-07-28T02:36:32;24.38;;;5.30;;
71496;SDS011;59317;53.218;5.730;2023-07-28T02:38:58;25.80;;;5.50;;
71496;SDS011;59317;53.218;5.730;2023-07-28T02:41:24;27.48;;;5.32;;
71496;SDS011;59317;53.218;5.730;2023-07-28T02:43:50;23.92;;;5.65;;
71496;SDS011;59317;53.218;5.730;2023-07-28T02:46:16;21.45;;;5.93;;
71496;SDS011;59317;53.218;5.730;2023-07-28T02:48:42;26.33;;;5.53;;
71496;SDS011;59317;53.218;5.730;2023-07-28T02:51:08;26.40;;;5.53;;
71496;SDS011;59317;53.218;5.730;2023-07-28T02:53:34;23.88;;;5.63;;
71496;SDS011;59317;53.218;5.730;2023-07-28T02:56:00;25.52;;;5.80;;
71496;SDS011;59317;53.218;5.730;2023-07-28T02:58:26;21.38;;;5.35;;
71496;SDS011;59317;53.218;5.730;2023-07-28T03:00:52;22.00;;;5.60;;
71496;SDS011;59317;53.218;5.730;2023-07-28T03:03:18;23.02;;;5.20;;
71496;SDS011;59317;53.218;5.730;2023-07-28T03:05:44;22.73;;;5.43;;
71496;SDS011;59317;53.218;5.730;2023-07-28T03:08:10;18.63;;;4.93;;
71496;SDS011;59317;53.218;5.730;2023-07-28T03:10:36;22.88;;;5.38;;
71496;SDS011;59317;53.218;5.730;2023-07-28T03:13:02;23.30;;;5.30;;
71496;SDS011;59317;53.218;5.730;2023-07-28T03:15:28;17.75;;;4.90;;
71496;SDS011;59317;53.218;5.730;2023-07-28T03:17:54;19.67;;;4.60;;
71496;SDS011;59317;53.218;5.730;2023-07-28T03:20:20;17.98;;;4.60;;
71496;SDS011;59317;53.218;5.730;2023-07-28T03:22:46;17.08;;;4.25;;
71496;SDS011;59317;53.218;5.730;2023-07-28T03:25:12;19.92;;;4.00;;
71496;SDS011;59317;53.218;5.730;2023-07-28T03:27:38;15.93;;;3.90;;
71496;SDS011;59317;53.218;5.730;2023-07-28T03:30:04;15.07;;;3.88;;
71496;SDS011;59317;53.218;5.730;2023-07-28T03:32:32;15.48;;;4.07;;
71496;SDS011;59317;53.218;5.730;2023-07-28T03:34:58;13.77;;;4.50;;
71496;SDS011;59317;53.218;5.730;2023-07-28T03:37:24;14.40;;;4.13;;
71496;SDS011;59317;53.218;5.730;2023-07-28T03:39:50;16.58;;;4.13;;
71496;SDS011;59317;53.218;5.730;2023-07-28T03:42:16;17.08;;;4.60;;
71496;SDS011;59317;53.218;5.730;2023-07-28T03:44:42;17.05;;;4.57;;
71496;SDS011;59317;53.218;5.730;2023-07-28T03:47:08;15.02;;;4.63;;
71496;SDS011;59317;53.218;5.730;2023-07-28T03:49:34;16.73;;;4.50;;
71496;SDS011;59317;53.218;5.730;2023-07-28T03:52:00;18.80;;;4.68;;
71496;SDS011;59317;53.218;5.730;2023-07-28T03:54:26;15.52;;;4.22;;
71496;SDS011;59317;53.218;5.730;2023-07-28T03:56:52;18.77;;;4.80;;
71496;SDS011;59317;53.218;5.730;2023-07-28T03:59:18;15.90;;;4.60;;
71496;SDS011;59317;53.218;5.730;2023-07-28T04:01:44;16.52;;;4.95;;
71496;SDS011;59317;53.218;5.730;2023-07-28T04:04:10;19.02;;;5.10;;
71496;SDS011;59317;53.218;5.730;2023-07-28T04:06:40;16.30;;;5.07;;
71496;SDS011;59317;53.218;5.730;2023-07-28T04:09:07;16.73;;;4.80;;
71496;SDS011;59317;53.218;5.730;2023-07-28T04:11:33;15.85;;;4.82;;
71496;SDS011;59317;53.218;5.730;2023-07-28T04:13:59;17.63;;;5.10;;
71496;SDS011;59317;53.218;5.730;2023-07-28T04:16:25;13.18;;;5.80;;
71496;SDS011;59317;53.218;5.730;2023-07-28T04:18:51;12.13;;;5.68;;
71496;SDS011;59317;53.218;5.730;2023-07-28T04:21:17;13.70;;;6.57;;
71496;SDS011;59317;53.218;5.730;2023-07-28T04:23:43;13.82;;;6.60;;
71496;SDS011;59317;53.218;5.730;2023-07-28T04:26:09;14.55;;;6.57;;
71496;SDS011;59317;53.218;5.730;2023-07-28T04:28:35;14.65;;;7.25;;
71496;SDS011;59317;53.218;5.730;2023-07-28T04:31:01;16.23;;;7.32;;
71496;SDS011;59317;53.218;5.730;2023-07-28T04:33:27;15.77;;;7.53;;
71496;SDS011;59317;53.218;5.730;2023-07-28T04:35:53;14.15;;;7.60;;
71496;SDS011;59317;53.218;5.730;2023-07-28T04:38:19;16.50;;;7.88;;
71496;SDS011;59317;53.218;5.730;2023-07-28T04:40:45;15.93;;;7.95;;
71496;SDS011;59317;53.218;5.730;2023-07-28T04:43:11;15.07;;;8.13;;
71496;SDS011;59317;53.218;5.730;2023-07-28T04:45:37;18.73;;;8.43;;
71496;SDS011;59317;53.218;5.730;2023-07-28T04:48:03;18.55;;;8.25;;
71496;SDS011;59317;53.218;5.730;2023-07-28T04:50:29;17.77;;;8.55;;
71496;SDS011;59317;53.218;5.730;2023-07-28T04:52:57;17.63;;;9.20;;
71496;SDS011;59317;53.218;5.730;2023-07-28T04:55:23;15.75;;;8.40;;
71496;SDS011;59317;53.218;5.730;2023-07-28T04:57:49;15.77;;;8.57;;
71496;SDS011;59317;53.218;5.730;2023-07-28T05:00:15;16.47;;;8.43;;
71496;SDS011;59317;53.218;5.730;2023-07-28T05:02:41;16.20;;;8.40;;
71496;SDS011;59317;53.218;5.730;2023-07-28T05:05:07;17.67;;;8.73;;
71496;SDS011;59317;53.218;5.730;2023-07-28T05:07:33;17.42;;;8.57;;
71496;SDS011;59317;53.218;5.730;2023-07-28T05:09:59;18.50;;;9.60;;
71496;SDS011;59317;53.218;5.730;2023-07-28T05:12:25;19.98;;;10.60;;
71496;SDS011;59317;53.218;5.730;2023-07-28T05:14:51;18.70;;;10.80;;
71496;SDS011;59317;53.218;5.730;2023-07-28T05:17:17;17.65;;;10.57;;
71496;SDS011;59317;53.218;5.730;2023-07-28T05:19:43;20.25;;;11.60;;
71496;SDS011;59317;53.218;5.730;2023-07-28T05:22:09;19.67;;;11.52;;
71496;SDS011;59317;53.218;5.730;2023-07-28T05:24:35;18.95;;;12.13;;
71496;SDS011;59317;53.218;5.730;2023-07-28T05:27:01;21.48;;;11.75;;
71496;SDS011;59317;53.218;5.730;2023-07-28T05:29:27;19.50;;;11.38;;
71496;SDS011;59317;53.218;5.730;2023-07-28T05:31:53;18.05;;;11.30;;
71496;SDS011;59317;53.218;5.730;2023-07-28T05:34:19;20.45;;;11.88;;
71496;SDS011;59317;53.218;5.730;2023-07-28T05:36:45;19.00;;;11.63;;
71496;SDS011;59317;53.218;5.730;2023-07-28T05:39:11;20.58;;;11.70;;
71496;SDS011;59317;53.218;5.730;2023-07-28T05:41:37;20.52;;;11.80;;
71496;SDS011;59317;53.218;5.730;2023-07-28T05:44:04;20.05;;;11.27;;
71496;SDS011;59317;53.218;5.730;2023-07-28T05:46:30;18.57;;;10.73;;
71496;SDS011;59317;53.218;5.730;2023-07-28T05:48:56;17.60;;;10.73;;
71496;SDS011;59317;53.218;5.730;2023-07-28T05:51:22;16.17;;;10.47;;
71496;SDS011;59317;53.218;5.730;2023-07-28T05:53:49;16.52;;;9.70;;
71496;SDS011;59317;53.218;5.730;2023-07-28T05:56:15;16.23;;;9.80;;
71496;SDS011;59317;53.218;5.730;2023-07-28T05:58:42;15.65;;;9.77;;
71496;SDS011;59317;53.218;5.730;2023-07-28T06:01:08;15.15;;;9.27;;
71496;SDS011;59317;53.218;5.730;2023-07-28T06:03:34;16.42;;;9.57;;
71496;SDS011;59317;53.218;5.730;2023-07-28T06:06:02;15.85;;;10.43;;
71496;SDS011;59317;53.218;5.730;2023-07-28T06:08:28;17.33;;;10.75;;
71496;SDS011;59317;53.218;5.730;2023-07-28T06:10:54;17.27;;;11.37;;
71496;SDS011;59317;53.218;5.730;2023-07-28T06:13:20;19.93;;;12.10;;
71496;SDS011;59317;53.218;5.730;2023-07-28T06:15:46;21.20;;;13.27;;
71496;SDS011;59317;53.218;5.730;2023-07-28T06:18:12;20.17;;;12.02;;
71496;SDS011;59317;53.218;5.730;2023-07-28T06:20:41;19.98;;;11.38;;
71496;SDS011;59317;53.218;5.730;2023-07-28T06:23:07;17.33;;;10.07;;
71496;SDS011;59317;53.218;5.730;2023-07-28T06:25:33;17.02;;;11.15;;
71496;SDS011;59317;53.218;5.730;2023-07-28T06:27:59;20.95;;;12.05;;
71496;SDS011;59317;53.218;5.730;2023-07-28T06:30:25;21.08;;;12.68;;
71496;SDS011;59317;53.218;5.730;2023-07-28T06:32:51;19.80;;;11.93;;
71496;SDS011;59317;53.218;5.730;2023-07-28T06:35:17;16.23;;;10.73;;
71496;SDS011;59317;53.218;5.730;2023-07-28T06:37:43;14.48;;;9.65;;
71496;SDS011;59317;53.218;5.730;2023-07-28T06:40:09;16.98;;;10.00;;
71496;SDS011;59317;53.218;5.730;2023-07-28T06:42:35;16.88;;;9.88;;
71496;SDS011;59317;53.218;5.730;2023-07-28T06:45:02;15.07;;;9.70;;
71496;SDS011;59317;53.218;5.730;2023-07-28T06:47:28;15.93;;;10.73;;
71496;SDS011;59317;53.218;5.730;2023-07-28T06:49:54;16.60;;;10.20;;
71496;SDS011;59317;53.218;5.730;2023-07-28T06:52:21;15.60;;;9.77;;
71496;SDS011;59317;53.218;5.730;2023-07-28T06:54:47;16.27;;;9.73;;
71496;SDS011;59317;53.218;5.730;2023-07-28T06:57:14;19.20;;;11.32;;
71496;SDS011;59317;53.218;5.730;2023-07-28T06:59:40;16.58;;;10.23;;
71496;SDS011;59317;53.218;5.730;2023-07-28T07:02:07;14.48;;;8.40;;
71496;SDS011;59317;53.218;5.730;2023-07-28T07:04:34;15.25;;;9.20;;
71496;SDS011;59317;53.218;5.730;2023-07-28T07:07:00;13.52;;;8.20;;
71496;SDS011;59317;53.218;5.730;2023-07-28T07:09:27;14.52;;;8.73;;
71496;SDS011;59317;53.218;5.730;2023-07-28T07:11:54;15.75;;;9.05;;
71496;SDS011;59317;53.218;5.730;2023-07-28T07:14:20;15.25;;;9.02;;
71496;SDS011;59317;53.218;5.730;2023-07-28T07:16:46;14.45;;;9.27;;
71496;SDS011;59317;53.218;5.730;2023-07-28T07:19:12;17.13;;;10.10;;
71496;SDS011;59317;53.218;5.730;2023-07-28T07:21:38;17.23;;;11.00;;
71496;SDS011;59317;53.218;5.730;2023-07-28T07:24:04;17.73;;;11.50;;
71496;SDS011;59317;53.218;5.730;2023-07-28T07:26:30;17.73;;;11.23;;
71496;SDS011;59317;53.218;5.730;2023-07-28T07:28:56;18.33;;;11.00;;
71496;SDS011;59317;53.218;5.730;2023-07-28T07:31:22;16.60;;;10.57;;
71496;SDS011;59317;53.218;5.730;2023-07-28T07:33:49;16.23;;;10.35;;
71496;SDS011;59317;53.218;5.730;2023-07-28T07:36:15;14.65;;;9.23;;
71496;SDS011;59317;53.218;5.730;2023-07-28T07:38:42;13.73;;;8.65;;
71496;SDS011;59317;53.218;5.730;2023-07-28T07:41:11;10.75;;;6.57;;
71496;SDS011;59317;53.218;5.730;2023-07-28T07:43:37;12.50;;;7.38;;
71496;SDS011;59317;53.218;5.730;2023-07-28T07:46:03;8.75;;;5.80;;
71496;SDS011;59317;53.218;5.730;2023-07-28T07:48:29;9.70;;;6.27;;
71496;SDS011;59317;53.218;5.730;2023-07-28T07:50:55;8.70;;;5.57;;
71496;SDS011;59317;53.218;5.730;2023-07-28T07:53:21;10.53;;;6.83;;
71496;SDS011;59317;53.218;5.730;2023-07-28T07:55:48;12.20;;;7.30;;
71496;SDS011;59317;53.218;5.730;2023-07-28T07:58:14;9.93;;;6.53;;
71496;SDS011;59317;53.218;5.730;2023-07-28T08:00:40;10.10;;;6.80;;
71496;SDS011;59317;53.218;5.730;2023-07-28T08:03:08;10.57;;;6.20;;
71496;SDS011;59317;53.218;5.730;2023-07-28T08:05:35;9.00;;;6.35;;
71496;SDS011;59317;53.218;5.730;2023-07-28T08:08:01;11.05;;;6.80;;
71496;SDS011;59317;53.218;5.730;2023-07-28T08:10:27;11.77;;;7.35;;
71496;SDS011;59317;53.218;5.730;2023-07-28T08:12:53;11.05;;;7.63;;
71496;SDS011;59317;53.218;5.730;2023-07-28T08:15:20;12.47;;;7.43;;
71496;SDS011;59317;53.218;5.730;2023-07-28T08:17:46;12.05;;;7.28;;
71496;SDS011;59317;53.218;5.730;2023-07-28T08:20:12;14.73;;;8.55;;
71496;SDS011;59317;53.218;5.730;2023-07-28T08:22:38;12.13;;;8.52;;
71496;SDS011;59317;53.218;5.730;2023-07-28T08:25:05;12.05;;;8.30;;
71496;SDS011;59317;53.218;5.730;2023-07-28T08:27:31;11.73;;;8.10;;
71496;SDS011;59317;53.218;5.730;2023-07-28T08:29:57;12.43;;;7.20;;
71496;SDS011;59317;53.218;5.730;2023-07-28T08:32:23;11.63;;;7.18;;
71496;SDS011;59317;53.218;5.730;2023-07-28T08:34:48;11.63;;;7.70;;
71496;SDS011;59317;53.218;5.730;2023-07-28T08:37:15;12.60;;;7.55;;
71496;SDS011;59317;53.218;5.730;2023-07-28T08:39:41;10.48;;;6.35;;
71496;SDS011;59317;53.218;5.730;2023-07-28T08:42:06;12.85;;;5.53;;
71496;SDS011;59317;53.218;5.730;2023-07-28T08:44:33;9.23;;;5.63;;
71496;SDS011;59317;53.218;5.730;2023-07-28T08:47:00;9.02;;;5.38;;
71496;SDS011;59317;53.218;5.730;2023-07-28T08:49:26;9.27;;;4.70;;
71496;SDS011;59317;53.218;5.730;2023-07-28T08:51:52;7.90;;;5.00;;
71496;SDS011;59317;53.218;5.730;2023-07-28T08:54:22;8.15;;;4.85;;
71496;SDS011;59317;53.218;5.730;2023-07-28T08:56:48;9.35;;;5.03;;
71496;SDS011;59317;53.218;5.730;2023-07-28T08:59:21;7.13;;;4.25;;
71496;SDS011;59317;53.218;5.730;2023-07-28T09:01:49;7.05;;;3.80;;
71496;SDS011;59317;53.218;5.730;2023-07-28T09:04:15;8.98;;;3.50;;
71496;SDS011;59317;53.218;5.730;2023-07-28T09:06:45;6.40;;;3.55;;
71496;SDS011;59317;53.218;5.730;2023-07-28T09:09:11;7.15;;;4.07;;
71496;SDS011;59317;53.218;5.730;2023-07-28T09:11:47;7.63;;;4.10;;
71496;SDS011;59317;53.218;5.730;2023-07-28T09:14:15;6.63;;;3.80;;
71496;SDS011;59317;53.218;5.730;2023-07-28T09:16:41;7.45;;;4.30;;
71496;SDS011;59317;53.218;5.730;2023-07-28T09:19:08;7.38;;;4.57;;
71496;SDS011;59317;53.218;5.730;2023-07-28T09:21:34;8.27;;;4.68;;
71496;SDS011;59317;53.218;5.730;2023-07-28T09:24:00;6.75;;;3.80;;
71496;SDS011;59317;53.218;5.730;2023-07-28T09:26:36;6.07;;;3.70;;
71496;SDS011;59317;53.218;5.730;2023-07-28T09:29:10;8.05;;;3.47;;
71496;SDS011;59317;53.218;5.730;2023-07-28T09:31:36;7.47;;;4.05;;
71496;SDS011;59317;53.218;5.730;2023-07-28T09:34:02;6.13;;;3.67;;
71496;SDS011;59317;53.218;5.730;2023-07-28T09:36:28;6.78;;;3.90;;
71496;SDS011;59317;53.218;5.730;2023-07-28T09:38:54;6.72;;;3.30;;
71496;SDS011;59317;53.218;5.730;2023-07-28T09:41:21;7.20;;;4.30;;
71496;SDS011;59317;53.218;5.730;2023-07-28T09:43:48;6.40;;;3.70;;
71496;SDS011;59317;53.218;5.730;2023-07-28T09:46:15;6.47;;;3.00;;
71496;SDS011;59317;53.218;5.730;2023-07-28T09:48:44;5.32;;;3.00;;
71496;SDS011;59317;53.218;5.730;2023-07-28T09:51:17;6.60;;;3.40;;
71496;SDS011;59317;53.218;5.730;2023-07-28T09:53:46;5.88;;;2.80;;
71496;SDS011;59317;53.218;5.730;2023-07-28T09:56:14;5.38;;;2.85;;
71496;SDS011;59317;53.218;5.730;2023-07-28T09:58:46;5.40;;;2.70;;
71496;SDS011;59317;53.218;5.730;2023-07-28T10:01:15;5.97;;;2.60;;
71496;SDS011;59317;53.218;5.730;2023-07-28T10:03:41;5.95;;;3.20;;
71496;SDS011;59317;53.218;5.730;2023-07-28T10:06:07;5.93;;;2.90;;
71496;SDS011;59317;53.218;5.730;2023-07-28T10:08:33;6.38;;;3.00;;
71496;SDS011;59317;53.218;5.730;2023-07-28T10:10:59;5.70;;;2.80;;
71496;SDS011;59317;53.218;5.730;2023-07-28T10:13:25;7.93;;;3.20;;
71496;SDS011;59317;53.218;5.730;2023-07-28T10:15:53;5.85;;;2.92;;
71496;SDS011;59317;53.218;5.730;2023-07-28T10:18:19;5.20;;;2.70;;
71496;SDS011;59317;53.218;5.730;2023-07-28T10:20:47;6.85;;;3.03;;
71496;SDS011;59317;53.218;5.730;2023-07-28T10:23:17;5.13;;;2.80;;
71496;SDS011;59317;53.218;5.730;2023-07-28T10:25:45;5.28;;;2.40;;
71496;SDS011;59317;53.218;5.730;2023-07-28T10:31:07;5.88;;;3.15;;
71496;SDS011;59317;53.218;5.730;2023-07-28T10:33:44;5.63;;;2.92;;
71496;SDS011;59317;53.218;5.730;2023-07-28T10:36:15;5.93;;;2.80;;
71496;SDS011;59317;53.218;5.730;2023-07-28T10:38:41;6.82;;;3.00;;
71496;SDS011;59317;53.218;5.730;2023-07-28T10:41:12;5.90;;;3.00;;
71496;SDS011;59317;53.218;5.730;2023-07-28T10:43:39;6.32;;;3.10;;
71496;SDS011;59317;53.218;5.730;2023-07-28T10:46:05;6.10;;;2.47;;
71496;SDS011;59317;53.218;5.730;2023-07-28T10:48:34;6.15;;;2.50;;
71496;SDS011;59317;53.218;5.730;2023-07-28T10:51:00;5.30;;;2.90;;
71496;SDS011;59317;53.218;5.730;2023-07-28T10:53:26;6.18;;;2.70;;
71496;SDS011;59317;53.218;5.730;2023-07-28T10:55:52;5.55;;;2.67;;
71496;SDS011;59317;53.218;5.730;2023-07-28T10:58:19;5.90;;;2.33;;
71496;SDS011;59317;53.218;5.730;2023-07-28T11:00:46;6.32;;;2.85;;
71496;SDS011;59317;53.218;5.730;2023-07-28T11:03:12;5.90;;;2.53;;
71496;SDS011;59317;53.218;5.730;2023-07-28T11:05:39;6.65;;;2.53;;
71496;SDS011;59317;53.218;5.730;2023-07-28T11:08:05;6.28;;;2.50;;
71496;SDS011;59317;53.218;5.730;2023-07-28T11:10:32;5.17;;;2.33;;
71496;SDS011;59317;53.218;5.730;2023-07-28T11:13:01;4.60;;;1.92;;
71496;SDS011;59317;53.218;5.730;2023-07-28T11:15:28;6.15;;;2.60;;
71496;SDS011;59317;53.218;5.730;2023-07-28T11:17:54;5.72;;;2.60;;
71496;SDS011;59317;53.218;5.730;2023-07-28T11:20:21;5.97;;;2.30;;
71496;SDS011;59317;53.218;5.730;2023-07-28T11:22:52;5.93;;;2.40;;
71496;SDS011;59317;53.218;5.730;2023-07-28T11:25:18;5.40;;;2.10;;
71496;SDS011;59317;53.218;5.730;2023-07-28T11:27:46;5.70;;;2.40;;
71496;SDS011;59317;53.218;5.730;2023-07-28T11:30:12;5.90;;;2.20;;
71496;SDS011;59317;53.218;5.730;2023-07-28T11:32:39;5.73;;;2.17;;
71496;SDS011;59317;53.218;5.730;2023-07-28T11:35:08;5.05;;;2.00;;
71496;SDS011;59317;53.218;5.730;2023-07-28T11:37:34;5.70;;;2.50;;
71496;SDS011;59317;53.218;5.730;2023-07-28T11:40:01;6.80;;;2.20;;
71496;SDS011;59317;53.218;5.730;2023-07-28T11:42:31;5.55;;;2.30;;
71496;SDS011;59317;53.218;5.730;2023-07-28T11:44:57;6.43;;;2.17;;
71496;SDS011;59317;53.218;5.730;2023-07-28T11:47:24;7.43;;;2.60;;
71496;SDS011;59317;53.218;5.730;2023-07-28T11:49:52;5.40;;;2.40;;
71496;SDS011;59317;53.218;5.730;2023-07-28T11:52:19;5.85;;;2.33;;
71496;SDS011;59317;53.218;5.730;2023-07-28T11:54:46;6.13;;;2.55;;
71496;SDS011;59317;53.218;5.730;2023-07-28T11:57:12;5.45;;;2.20;;
71496;SDS011;59317;53.218;5.730;2023-07-28T11:59:38;5.57;;;2.30;;
71496;SDS011;59317;53.218;5.730;2023-07-28T12:02:06;6.13;;;2.00;;
71496;SDS011;59317;53.218;5.730;2023-07-28T12:04:36;4.20;;;1.95;;
71496;SDS011;59317;53.218;5.730;2023-07-28T12:07:09;4.85;;;2.22;;
71496;SDS011;59317;53.218;5.730;2023-07-28T12:12:13;5.57;;;1.90;;
71496;SDS011;59317;53.218;5.730;2023-07-28T12:14:39;3.23;;;1.50;;
71496;SDS011;59317;53.218;5.730;2023-07-28T12:17:14;3.17;;;1.17;;
71496;SDS011;59317;53.218;5.730;2023-07-28T12:20:02;6.25;;;1.55;;
71496;SDS011;59317;53.218;5.730;2023-07-28T12:22:27;3.93;;;1.70;;
71496;SDS011;59317;53.218;5.730;2023-07-28T12:24:53;6.63;;;2.00;;
71496;SDS011;59317;53.218;5.730;2023-07-28T12:27:19;4.93;;;1.90;;
71496;SDS011;59317;53.218;5.730;2023-07-28T12:29:48;4.90;;;1.63;;
71496;SDS011;59317;53.218;5.730;2023-07-28T12:32:15;4.32;;;1.77;;
71496;SDS011;59317;53.218;5.730;2023-07-28T12:34:41;4.95;;;1.75;;
71496;SDS011;59317;53.218;5.730;2023-07-28T12:37:07;5.25;;;1.65;;
71496;SDS011;59317;53.218;5.730;2023-07-28T12:39:35;5.30;;;1.60;;
71496;SDS011;59317;53.218;5.730;2023-07-28T12:42:01;4.05;;;1.50;;
71496;SDS011;59317;53.218;5.730;2023-07-28T12:44:27;3.77;;;1.30;;
71496;SDS011;59317;53.218;5.730;2023-07-28T12:46:53;3.00;;;1.20;;
71496;SDS011;59317;53.218;5.730;2023-07-28T12:49:19;4.93;;;1.40;;
71496;SDS011;59317;53.218;5.730;2023-07-28T12:51:45;3.73;;;1.30;;
71496;SDS011;59317;53.218;5.730;2023-07-28T12:54:11;4.15;;;1.30;;
71496;SDS011;59317;53.218;5.730;2023-07-28T12:56:37;3.67;;;1.10;;
71496;SDS011;59317;53.218;5.730;2023-07-28T12:59:03;3.75;;;1.13;;
71496;SDS011;59317;53.218;5.730;2023-07-28T13:01:29;3.40;;;1.40;;
71496;SDS011;59317;53.218;5.730;2023-07-28T13:03:55;5.45;;;1.63;;
71496;SDS011;59317;53.218;5.730;2023-07-28T13:06:21;5.43;;;1.50;;
71496;SDS011;59317;53.218;5.730;2023-07-28T13:08:47;3.00;;;1.10;;
71496;SDS011;59317;53.218;5.730;2023-07-28T13:11:13;2.45;;;1.00;;
71496;SDS011;59317;53.218;5.730;2023-07-28T13:13:39;3.13;;;1.17;;
71496;SDS011;59317;53.218;5.730;2023-07-28T13:16:06;4.30;;;1.10;;
71496;SDS011;59317;53.218;5.730;2023-07-28T13:18:32;4.25;;;1.40;;
71496;SDS011;59317;53.218;5.730;2023-07-28T13:20:58;3.03;;;1.10;;
71496;SDS011;59317;53.218;5.730;2023-07-28T13:23:24;2.55;;;0.90;;
71496;SDS011;59317;53.218;5.730;2023-07-28T13:25:51;4.03;;;1.10;;
71496;SDS011;59317;53.218;5.730;2023-07-28T13:28:17;2.70;;;1.02;;
71496;SDS011;59317;53.218;5.730;2023-07-28T13:30:43;2.70;;;0.90;;
71496;SDS011;59317;53.218;5.730;2023-07-28T13:33:09;3.67;;;1.00;;
71496;SDS011;59317;53.218;5.730;2023-07-28T13:35:36;2.45;;;0.90;;
71496;SDS011;59317;53.218;5.730;2023-07-28T13:38:02;3.88;;;1.10;;
71496;SDS011;59317;53.218;5.730;2023-07-28T13:40:28;4.10;;;1.13;;
71496;SDS011;59317;53.218;5.730;2023-07-28T13:42:54;3.78;;;1.10;;
71496;SDS011;59317;53.218;5.730;2023-07-28T13:45:20;3.10;;;1.00;;
71496;SDS011;59317;53.218;5.730;2023-07-28T13:47:46;3.33;;;1.15;;
71496;SDS011;59317;53.218;5.730;2023-07-28T13:50:12;4.47;;;1.30;;
71496;SDS011;59317;53.218;5.730;2023-07-28T13:52:38;4.10;;;1.30;;
71496;SDS011;59317;53.218;5.730;2023-07-28T13:55:04;3.47;;;1.15;;
71496;SDS011;59317;53.218;5.730;2023-07-28T13:57:31;3.50;;;1.20;;
71496;SDS011;59317;53.218;5.730;2023-07-28T13:59:57;3.28;;;1.30;;
71496;SDS011;59317;53.218;5.730;2023-07-28T14:02:23;3.25;;;1.20;;
71496;SDS011;59317;53.218;5.730;2023-07-28T14:04:49;4.13;;;1.30;;
71496;SDS011;59317;53.218;5.730;2023-07-28T14:07:15;3.35;;;1.20;;
71496;SDS011;59317;53.218;5.730;2023-07-28T14:09:41;3.70;;;1.35;;
71496;SDS011;59317;53.218;5.730;2023-07-28T14:12:07;3.83;;;1.40;;
71496;SDS011;59317;53.218;5.730;2023-07-28T14:14:33;4.18;;;1.35;;
71496;SDS011;59317;53.218;5.730;2023-07-28T14:16:59;3.95;;;1.48;;
71496;SDS011;59317;53.218;5.730;2023-07-28T14:19:25;4.65;;;1.75;;
71496;SDS011;59317;53.218;5.730;2023-07-28T14:21:51;4.53;;;1.77;;
71496;SDS011;59317;53.218;5.730;2023-07-28T14:24:17;5.35;;;2.20;;
71496;SDS011;59317;53.218;5.730;2023-07-28T14:26:43;4.72;;;1.80;;
71496;SDS011;59317;53.218;5.730;2023-07-28T14:29:09;4.88;;;1.88;;
71496;SDS011;59317;53.218;5.730;2023-07-28T14:31:35;5.20;;;1.92;;
71496;SDS011;59317;53.218;5.730;2023-07-28T14:34:01;4.50;;;1.67;;
71496;SDS011;59317;53.218;5.730;2023-07-28T14:36:27;4.57;;;1.70;;
71496;SDS011;59317;53.218;5.730;2023-07-28T14:38:53;5.57;;;1.98;;
71496;SDS011;59317;53.218;5.730;2023-07-28T14:41:19;7.25;;;3.53;;
71496;SDS011;59317;53.218;5.730;2023-07-28T14:43:45;7.75;;;2.58;;